ADDS METAR Data INFO
IDs: Format: Raw Decoded Include TAF

Data at: 2144 UTC 24 Feb 2018

METAR for:KI69 (Batavia/Clermont Cnt, OH, US)
Text:KI69 242135Z AUTO 11006KT 10SM SCT021 OVC060 12/10 A2997 RMK AO2 P0001 T01230098
Temperature: 12.3°C ( 54°F)
Dewpoint: 9.8°C ( 50°F) [RH = 85%]
Pressure (altimeter):29.97 inches Hg (1015.0 mb)
Winds:from the ESE (110 degrees) at 7 MPH (6 knots; 3.1 m/s)
Visibility:10 or more sm (16+ km)
Ceiling:6000 feet AGL
Clouds: scattered clouds at 2100 feet AGL, overcast cloud deck at 6000 feet AGL
QC Flag:automated observation with no human augmentation